createdAt,value
2022-08-25T00:02:19.632Z,3.13
2022-08-25T00:04:53.802Z,2.53
2022-08-25T00:07:21.728Z,2.80
2022-08-25T00:09:49.475Z,2.58
2022-08-25T00:12:17.222Z,3.55
2022-08-25T00:14:44.993Z,3.05
2022-08-25T00:17:12.733Z,3.35
2022-08-25T00:19:40.516Z,3.00
2022-08-25T00:22:08.231Z,2.50
2022-08-25T00:24:35.941Z,2.90
2022-08-25T00:27:04.012Z,3.35
2022-08-25T00:29:31.793Z,2.95
2022-08-25T00:31:59.544Z,2.92
2022-08-25T00:34:27.311Z,2.70
2022-08-25T00:36:55.048Z,3.20
2022-08-25T00:39:22.771Z,3.10
2022-08-25T00:41:50.515Z,2.80
2022-08-25T00:44:18.898Z,3.38
2022-08-25T00:46:47.179Z,2.92
2022-08-25T00:49:24.625Z,3.30
2022-08-25T00:51:53.280Z,3.10
2022-08-25T00:54:21.059Z,2.72
2022-08-25T00:56:48.842Z,2.75
2022-08-25T00:59:16.582Z,2.92
2022-08-25T01:01:44.365Z,3.20
2022-08-25T01:04:12.579Z,2.65
2022-08-25T01:06:40.328Z,3.30
2022-08-25T01:09:08.165Z,3.40
2022-08-25T01:11:35.974Z,2.90
2022-08-25T01:14:06.508Z,3.10
2022-08-25T01:16:34.444Z,3.20
2022-08-25T01:19:02.147Z,3.33
2022-08-25T01:21:29.854Z,3.47
2022-08-25T01:23:58.249Z,3.17
2022-08-25T01:26:30.135Z,3.33
2022-08-25T01:29:15.611Z,3.30
2022-08-25T01:31:43.335Z,3.20
2022-08-25T01:34:12.295Z,2.75
2022-08-25T01:36:40.080Z,3.63
2022-08-25T01:39:07.817Z,3.22
2022-08-25T01:41:35.475Z,3.25
2022-08-25T01:44:03.259Z,3.60
2022-08-25T01:46:31.111Z,3.45
2022-08-25T01:48:58.939Z,4.03
2022-08-25T01:51:26.656Z,3.50
2022-08-25T01:53:54.408Z,3.22
2022-08-25T01:56:22.122Z,3.40
2022-08-25T01:58:50.021Z,3.35
2022-08-25T02:01:17.897Z,3.58
2022-08-25T02:03:46.239Z,3.58
2022-08-25T02:06:14.193Z,3.70
2022-08-25T02:08:41.918Z,3.67
2022-08-25T02:11:09.887Z,4.10
2022-08-25T02:13:37.600Z,4.07
2022-08-25T02:16:05.338Z,3.45
2022-08-25T02:18:33.066Z,4.00
2022-08-25T02:21:00.826Z,3.60
2022-08-25T02:23:28.615Z,3.50
2022-08-25T02:25:57.345Z,3.58
2022-08-25T02:28:25.050Z,3.38
2022-08-25T02:30:53.273Z,3.63
2022-08-25T02:33:29.213Z,3.70
2022-08-25T02:35:57.015Z,3.70
2022-08-25T02:38:25.097Z,3.72
2022-08-25T02:40:52.816Z,3.50
2022-08-25T02:43:20.564Z,3.25
2022-08-25T02:45:48.304Z,3.85
2022-08-25T02:48:16.066Z,4.45
2022-08-25T02:50:43.910Z,4.05
2022-08-25T02:53:11.718Z,4.15
2022-08-25T02:55:40.843Z,3.92
2022-08-25T02:58:09.151Z,3.70
2022-08-25T03:00:36.877Z,4.10
2022-08-25T03:03:04.618Z,3.83
2022-08-25T03:05:34.056Z,3.72
2022-08-25T03:08:01.804Z,3.67
2022-08-25T03:10:29.586Z,4.03
2022-08-25T03:12:57.328Z,3.92
2022-08-25T03:15:25.669Z,4.30
2022-08-25T03:17:53.638Z,3.50
2022-08-25T03:20:21.384Z,4.03
2022-08-25T03:22:49.096Z,4.05
2022-08-25T03:25:33.561Z,3.97
2022-08-25T03:28:01.401Z,4.60
2022-08-25T03:30:29.465Z,4.50
2022-08-25T03:32:57.341Z,4.10
2022-08-25T03:35:25.158Z,4.13
2022-08-25T03:37:53.057Z,4.15
2022-08-25T03:40:21.525Z,4.32
2022-08-25T03:42:49.391Z,4.15
2022-08-25T03:45:17.427Z,4.97
2022-08-25T03:47:45.289Z,4.10
2022-08-25T03:50:13.134Z,4.03
2022-08-25T03:52:42.777Z,4.35
2022-08-25T03:55:10.871Z,4.38
2022-08-25T03:57:38.707Z,4.13
2022-08-25T04:00:06.494Z,4.43
2022-08-25T04:02:34.745Z,4.30
2022-08-25T04:05:02.514Z,4.07
2022-08-25T04:07:30.594Z,4.15
2022-08-25T04:09:58.334Z,4.32
2022-08-25T04:12:26.088Z,3.97
2022-08-25T04:14:53.817Z,4.03
2022-08-25T04:17:21.915Z,4.20
2022-08-25T04:19:50.849Z,4.20
2022-08-25T04:22:18.594Z,4.40
2022-08-25T04:24:46.297Z,4.22
2022-08-25T04:27:13.961Z,3.85
2022-08-25T04:29:41.709Z,4.20
2022-08-25T04:32:09.525Z,4.10
2022-08-25T04:34:37.341Z,4.05
2022-08-25T04:37:06.334Z,4.50
2022-08-25T04:39:34.208Z,5.40
2022-08-25T04:42:01.963Z,4.60
2022-08-25T04:44:29.711Z,4.18
2022-08-25T04:46:57.436Z,4.43
2022-08-25T04:49:25.179Z,5.30
2022-08-25T04:51:52.931Z,4.50
2022-08-25T04:54:22.244Z,4.55
2022-08-25T04:56:50.030Z,5.22
2022-08-25T04:59:17.850Z,4.70
2022-08-25T05:01:47.004Z,5.28
2022-08-25T05:04:28.125Z,4.70
2022-08-25T05:06:56.408Z,4.88
2022-08-25T05:09:25.058Z,4.80
2022-08-25T05:11:53.078Z,4.88
2022-08-25T05:14:26.516Z,4.32
2022-08-25T05:16:54.532Z,4.70
2022-08-25T05:19:22.874Z,4.70
2022-08-25T05:21:50.603Z,4.75
2022-08-25T05:24:18.339Z,4.65
2022-08-25T05:26:46.092Z,5.00
2022-08-25T05:29:14.437Z,4.97
2022-08-25T05:31:47.122Z,4.70
2022-08-25T05:34:18.917Z,4.43
2022-08-25T05:36:46.765Z,5.13
2022-08-25T05:39:14.554Z,4.90
2022-08-25T05:41:42.268Z,5.43
2022-08-25T05:44:10.037Z,5.30
2022-08-25T05:46:37.801Z,5.13
2022-08-25T05:49:05.511Z,4.75
2022-08-25T05:51:33.239Z,4.75
2022-08-25T05:54:00.967Z,4.68
2022-08-25T05:56:28.725Z,4.90
2022-08-25T05:58:56.411Z,5.32
2022-08-25T06:01:43.361Z,5.00
2022-08-25T06:04:12.765Z,4.55
2022-08-25T06:06:40.649Z,4.88
2022-08-25T06:09:08.885Z,5.57
2022-08-25T06:11:36.559Z,4.90
2022-08-25T06:14:04.727Z,5.00
2022-08-25T06:16:33.043Z,4.57
2022-08-25T06:22:06.189Z,4.65
2022-08-25T06:24:34.263Z,5.20
2022-08-25T06:27:01.966Z,4.70
2022-08-25T06:29:29.642Z,5.03
2022-08-25T06:31:57.441Z,6.22
2022-08-25T06:34:25.149Z,4.40
2022-08-25T06:36:52.829Z,4.35
2022-08-25T06:39:20.551Z,4.75
2022-08-25T06:41:48.272Z,4.20
2022-08-25T06:44:15.957Z,4.13
2022-08-25T06:46:43.724Z,3.90
2022-08-25T06:49:11.537Z,4.80
2022-08-25T06:51:39.212Z,4.93
2022-08-25T06:54:06.908Z,3.95
2022-08-25T06:56:34.645Z,4.88
2022-08-25T06:59:02.399Z,4.82
2022-08-25T07:01:31.839Z,4.85
2022-08-25T07:03:59.858Z,4.22
2022-08-25T07:06:27.608Z,4.32
2022-08-25T07:08:55.270Z,4.38
2022-08-25T07:11:22.941Z,4.72
2022-08-25T07:13:50.678Z,4.97
2022-08-25T07:16:18.422Z,4.45
2022-08-25T07:18:46.261Z,5.25
2022-08-25T07:21:13.995Z,4.38
2022-08-25T07:23:41.729Z,5.00
2022-08-25T07:26:15.852Z,5.53
2022-08-25T07:31:59.653Z,4.35
2022-08-25T07:37:47.804Z,4.72
2022-08-25T07:40:14.413Z,4.88
2022-08-25T07:42:42.135Z,5.72
2022-08-25T07:45:10.865Z,4.72
2022-08-25T07:47:38.684Z,5.60
2022-08-25T07:50:06.925Z,4.93
2022-08-25T07:52:34.696Z,4.70
2022-08-25T07:55:02.717Z,4.72
2022-08-25T07:57:30.509Z,4.07
2022-08-25T07:59:58.740Z,4.60
2022-08-25T08:02:26.622Z,4.60
2022-08-25T08:04:54.381Z,4.88
2022-08-25T08:07:22.912Z,4.60
2022-08-25T08:10:00.377Z,4.95
2022-08-25T08:12:38.843Z,4.45
2022-08-25T08:15:10.274Z,4.88
2022-08-25T08:17:39.211Z,4.40
2022-08-25T08:20:08.888Z,4.97
2022-08-25T08:22:36.612Z,4.63
2022-08-25T08:25:04.306Z,4.75
2022-08-25T08:27:36.255Z,4.22
2022-08-25T08:30:04.175Z,4.65
2022-08-25T08:32:46.473Z,4.80
2022-08-25T08:35:24.786Z,4.47
2022-08-25T08:37:53.884Z,4.27
2022-08-25T08:40:21.846Z,4.70
2022-08-25T08:42:48.933Z,4.88
2022-08-25T08:45:17.028Z,4.30
2022-08-25T08:47:45.455Z,5.10
2022-08-25T08:50:13.178Z,4.38
2022-08-25T08:52:41.380Z,5.00
2022-08-25T08:55:10.300Z,4.60
2022-08-25T08:57:38.292Z,5.05
2022-08-25T09:00:06.013Z,5.05
2022-08-25T09:02:50.584Z,4.93
2022-08-25T09:05:21.036Z,5.00
2022-08-25T09:07:48.833Z,4.55
2022-08-25T09:10:22.385Z,5.18
2022-08-25T09:12:51.285Z,4.68
2022-08-25T09:15:19.106Z,5.05
2022-08-25T09:17:54.503Z,5.00
2022-08-25T09:20:22.724Z,4.65
2022-08-25T09:22:51.661Z,5.00
2022-08-25T09:25:39.622Z,5.22
2022-08-25T09:28:09.572Z,5.20
2022-08-25T09:30:37.312Z,4.90
2022-08-25T09:33:05.418Z,4.93
2022-08-25T09:35:33.442Z,4.90
2022-08-25T09:38:02.432Z,7.22
2022-08-25T09:40:30.322Z,4.85
2022-08-25T09:42:58.657Z,5.30
2022-08-25T09:45:26.582Z,5.50
2022-08-25T09:47:54.308Z,4.90
2022-08-25T09:50:22.100Z,5.05
2022-08-25T09:53:10.194Z,5.55
2022-08-25T09:55:39.432Z,5.43
2022-08-25T09:58:09.500Z,5.40
2022-08-25T10:00:37.401Z,5.65
2022-08-25T10:03:05.959Z,5.20
2022-08-25T10:05:37.134Z,5.60
2022-08-25T10:08:06.744Z,5.10
2022-08-25T10:10:34.595Z,5.75
2022-08-25T10:13:03.668Z,5.47
2022-08-25T10:15:34.157Z,5.88
2022-08-25T10:18:01.919Z,5.70
2022-08-25T10:20:33.051Z,6.25
2022-08-25T10:23:03.272Z,5.60
2022-08-25T10:25:31.092Z,5.80
2022-08-25T10:27:58.827Z,5.78
2022-08-25T10:30:26.552Z,5.47
2022-08-25T10:32:55.583Z,5.90
2022-08-25T10:35:23.715Z,5.85
2022-08-25T10:37:51.829Z,6.32
2022-08-25T10:40:19.637Z,5.78
2022-08-25T10:42:47.410Z,6.03
2022-08-25T10:45:32.585Z,5.90
2022-08-25T10:48:00.398Z,6.45
2022-08-25T10:50:29.380Z,5.90
2022-08-25T10:52:57.084Z,5.45
2022-08-25T10:55:24.941Z,5.93
2022-08-25T10:57:52.922Z,6.05
2022-08-25T11:00:22.436Z,5.90
2022-08-25T11:02:50.726Z,6.75
2022-08-25T11:05:24.567Z,5.73
2022-08-25T11:07:52.754Z,6.25
2022-08-25T11:10:20.484Z,5.85
2022-08-25T11:12:48.220Z,5.95
2022-08-25T11:15:15.974Z,5.40
2022-08-25T11:17:44.483Z,5.50
2022-08-25T11:20:19.431Z,6.05
2022-08-25T11:22:54.400Z,5.93
2022-08-25T11:25:22.187Z,5.55
2022-08-25T11:27:49.923Z,6.30
2022-08-25T11:30:17.805Z,5.85
2022-08-25T11:32:46.572Z,5.78
2022-08-25T11:35:14.856Z,6.55
2022-08-25T11:37:42.886Z,5.18
2022-08-25T11:40:11.762Z,6.10
2022-08-25T11:42:43.063Z,5.80
2022-08-25T11:45:11.471Z,6.78
2022-08-25T11:47:39.209Z,6.60
2022-08-25T11:50:06.984Z,6.53
2022-08-25T11:52:35.121Z,6.47
2022-08-25T11:55:02.967Z,6.05
2022-08-25T11:57:33.270Z,6.35
2022-08-25T12:00:00.997Z,6.97
2022-08-25T12:02:28.793Z,8.23
2022-08-25T12:04:56.695Z,5.97
2022-08-25T12:07:24.506Z,5.75
2022-08-25T12:09:53.818Z,5.85
2022-08-25T12:12:21.623Z,6.68
2022-08-25T12:14:49.417Z,6.85
2022-08-25T12:17:17.154Z,5.97
2022-08-25T12:19:44.954Z,7.30
2022-08-25T12:22:12.690Z,5.47
2022-08-25T12:24:40.461Z,6.30
2022-08-25T12:27:15.099Z,5.75
2022-08-25T12:29:42.839Z,5.65
2022-08-25T12:32:10.635Z,5.43
2022-08-25T12:34:38.357Z,6.15
2022-08-25T12:37:06.626Z,5.95
2022-08-25T12:39:34.397Z,6.55
2022-08-25T12:42:03.277Z,6.22
2022-08-25T12:44:31.073Z,5.80
2022-08-25T12:46:58.780Z,6.07
2022-08-25T12:49:30.563Z,6.10
2022-08-25T12:51:59.110Z,7.53
2022-08-25T12:54:27.319Z,5.85
2022-08-25T12:56:55.171Z,6.10
2022-08-25T12:59:22.991Z,5.97
2022-08-25T13:01:50.833Z,6.75
2022-08-25T13:04:18.682Z,6.32
2022-08-25T13:06:46.703Z,5.85
2022-08-25T13:09:14.576Z,6.00
2022-08-25T13:11:43.270Z,9.07
2022-08-25T13:14:12.592Z,7.10
2022-08-25T13:16:40.698Z,6.47
2022-08-25T13:19:08.407Z,5.88
2022-08-25T13:21:37.233Z,7.22
2022-08-25T13:24:05.272Z,6.28
2022-08-25T13:26:33.615Z,6.22
2022-08-25T13:29:01.384Z,6.13
2022-08-25T13:31:29.872Z,5.60
2022-08-25T13:33:58.017Z,6.18
2022-08-25T13:36:51.063Z,5.90
2022-08-25T13:39:45.561Z,5.80
2022-08-25T13:42:09.621Z,6.13
2022-08-25T13:44:40.171Z,5.85
2022-08-25T13:47:19.608Z,5.93
2022-08-25T13:49:48.542Z,7.40
2022-08-25T13:52:16.306Z,5.85
2022-08-25T13:54:46.824Z,5.72
2022-08-25T13:57:14.536Z,6.03
2022-08-25T13:59:46.493Z,6.38
2022-08-25T14:02:19.340Z,6.20
2022-08-25T14:04:51.144Z,5.95
2022-08-25T14:07:20.411Z,5.95
2022-08-25T14:09:48.313Z,8.43
2022-08-25T14:12:16.091Z,5.70
2022-08-25T14:14:44.055Z,6.70
2022-08-25T14:17:28.623Z,6.10
2022-08-25T14:19:59.479Z,5.88
2022-08-25T14:22:27.215Z,7.10
2022-08-25T14:24:54.928Z,6.22
2022-08-25T14:27:22.632Z,5.50
2022-08-25T14:29:52.769Z,6.13
2022-08-25T14:32:20.761Z,6.25
2022-08-25T14:34:48.498Z,5.95
2022-08-25T14:37:16.641Z,5.53
2022-08-25T14:39:44.334Z,5.93
2022-08-25T14:42:12.310Z,7.30
2022-08-25T14:44:40.065Z,6.63
2022-08-25T14:47:08.117Z,5.93
2022-08-25T14:49:35.823Z,6.45
2022-08-25T14:52:03.503Z,5.93
2022-08-25T14:54:33.650Z,6.07
2022-08-25T14:57:03.647Z,5.80
2022-08-25T14:59:36.303Z,8.75
2022-08-25T15:02:13.021Z,5.93
2022-08-25T15:04:42.406Z,6.32
2022-08-25T15:07:30.636Z,5.75
2022-08-25T15:09:59.792Z,5.55
2022-08-25T15:12:46.760Z,5.05
2022-08-25T15:15:14.908Z,6.72
2022-08-25T15:17:44.567Z,7.03
2022-08-25T15:20:12.492Z,6.03
2022-08-25T15:22:41.751Z,6.22
2022-08-25T15:25:09.567Z,6.55
2022-08-25T15:27:37.324Z,5.65
2022-08-25T15:30:05.424Z,10.20
2022-08-25T15:32:33.159Z,6.25
2022-08-25T15:35:01.247Z,6.65
2022-08-25T15:37:29.016Z,5.82
2022-08-25T15:39:57.624Z,7.22
2022-08-25T15:42:25.968Z,6.53
2022-08-25T15:44:54.603Z,5.93
2022-08-25T15:47:24.140Z,8.63
2022-08-25T15:49:53.289Z,7.57
2022-08-25T15:52:21.100Z,5.72
2022-08-25T15:54:48.924Z,5.78
2022-08-25T15:57:24.360Z,6.47
2022-08-25T15:59:53.271Z,5.93
2022-08-25T16:02:21.233Z,6.70
2022-08-25T16:04:50.817Z,5.95
2022-08-25T16:07:18.524Z,7.10
2022-08-25T16:09:46.578Z,7.10
2022-08-25T16:12:14.342Z,7.85
2022-08-25T16:14:42.260Z,6.18
2022-08-25T16:17:10.360Z,6.72
2022-08-25T16:19:39.273Z,6.95
2022-08-25T16:22:08.924Z,6.78
2022-08-25T16:24:38.931Z,6.78
2022-08-25T16:27:11.528Z,6.47
2022-08-25T16:29:39.689Z,6.65
2022-08-25T16:32:07.453Z,7.00
2022-08-25T16:34:35.378Z,5.22
2022-08-25T16:37:03.745Z,6.32
2022-08-25T16:39:32.403Z,7.50
2022-08-25T16:42:00.272Z,6.05
2022-08-25T16:44:28.956Z,7.78
2022-08-25T16:46:57.625Z,7.40
2022-08-25T16:49:25.532Z,6.55
2022-08-25T16:51:57.627Z,6.70
2022-08-25T16:54:43.391Z,5.80
2022-08-25T16:57:11.129Z,7.50
2022-08-25T16:59:38.984Z,6.53
2022-08-25T17:02:07.085Z,5.80
2022-08-25T17:04:34.825Z,7.30
2022-08-25T17:07:02.613Z,6.97
2022-08-25T17:09:30.722Z,6.00
2022-08-25T17:11:58.462Z,6.03
2022-08-25T17:14:26.643Z,7.95
2022-08-25T17:16:55.524Z,7.00
2022-08-25T17:19:24.927Z,5.70
2022-08-25T17:21:54.524Z,5.63
2022-08-25T17:24:29.545Z,6.95
2022-08-25T17:26:59.371Z,6.13
2022-08-25T17:29:27.140Z,6.00
2022-08-25T17:31:54.897Z,6.20
2022-08-25T17:34:23.287Z,5.20
2022-08-25T17:36:51.238Z,7.20
2022-08-25T17:39:22.253Z,5.80
2022-08-25T17:41:50.686Z,6.22
2022-08-25T17:44:18.404Z,5.75
2022-08-25T17:46:48.011Z,7.22
2022-08-25T17:49:16.086Z,6.43
2022-08-25T17:51:43.770Z,8.82
2022-08-25T17:54:13.024Z,8.30
2022-08-25T17:56:40.739Z,7.35
2022-08-25T17:59:08.539Z,7.47
2022-08-25T18:01:40.614Z,6.00
2022-08-25T18:04:15.632Z,6.97
2022-08-25T18:06:45.848Z,6.93
2022-08-25T18:09:14.077Z,6.18
2022-08-25T18:11:42.616Z,6.20
2022-08-25T18:14:11.325Z,5.80
2022-08-25T18:16:39.129Z,5.50
2022-08-25T18:19:09.822Z,5.40
2022-08-25T18:21:38.159Z,6.03
2022-08-25T18:24:05.967Z,6.10
2022-08-25T18:26:33.704Z,6.10
2022-08-25T18:29:01.720Z,7.70
2022-08-25T18:31:29.524Z,5.57
2022-08-25T18:33:58.105Z,5.57
2022-08-25T18:36:25.850Z,6.85
2022-08-25T18:39:11.667Z,6.00
2022-08-25T18:41:41.472Z,8.82
2022-08-25T18:44:10.542Z,6.47
2022-08-25T18:46:39.512Z,5.85
2022-08-25T18:49:07.303Z,5.70
2022-08-25T18:51:36.269Z,6.30
2022-08-25T18:54:04.230Z,6.00
2022-08-25T18:56:32.096Z,6.35
2022-08-25T18:59:00.627Z,5.72
2022-08-25T19:01:28.666Z,5.75
2022-08-25T19:03:56.476Z,8.77
2022-08-25T19:06:24.188Z,5.90
2022-08-25T19:08:51.936Z,6.97
2022-08-25T19:11:22.276Z,5.30
2022-08-25T19:13:50.356Z,7.75
2022-08-25T19:16:20.363Z,7.50
2022-08-25T19:18:48.797Z,6.03
2022-08-25T19:21:22.859Z,6.00
2022-08-25T19:23:50.742Z,5.72
2022-08-25T19:26:19.112Z,6.55
2022-08-25T19:28:48.994Z,5.55
2022-08-25T19:31:18.059Z,6.10
2022-08-25T19:33:46.124Z,5.20
2022-08-25T19:36:13.909Z,6.70
2022-08-25T19:38:41.674Z,5.82
2022-08-25T19:41:14.285Z,6.15
2022-08-25T19:43:55.713Z,5.93
2022-08-25T19:46:25.109Z,7.38
2022-08-25T19:48:52.832Z,5.90
2022-08-25T19:51:21.737Z,5.90
2022-08-25T19:53:54.832Z,6.07
2022-08-25T19:56:24.131Z,6.20
2022-08-25T19:58:51.843Z,7.30
2022-08-25T20:01:19.963Z,5.50
2022-08-25T20:03:47.821Z,6.25
2022-08-25T20:06:16.105Z,6.25
2022-08-25T20:08:43.973Z,6.35
2022-08-25T20:11:11.973Z,7.45
2022-08-25T20:13:39.722Z,6.55
2022-08-25T20:16:07.773Z,6.55
2022-08-25T20:18:36.361Z,5.63
2022-08-25T20:21:04.186Z,6.10
2022-08-25T20:23:49.718Z,6.95
2022-08-25T20:26:17.455Z,6.28
2022-08-25T20:28:46.489Z,5.70
2022-08-25T20:31:14.254Z,5.97
2022-08-25T20:33:42.037Z,5.60
2022-08-25T20:36:11.208Z,7.03
2022-08-25T20:38:41.095Z,8.18
2022-08-25T20:41:10.395Z,5.82
2022-08-25T20:43:39.178Z,6.80
2022-08-25T20:46:07.103Z,6.43
2022-08-25T20:48:35.102Z,8.05
2022-08-25T20:51:02.985Z,6.97
2022-08-25T20:53:30.697Z,5.68
2022-08-25T20:55:58.656Z,7.43
2022-08-25T20:58:26.556Z,5.50
2022-08-25T21:00:54.595Z,7.63
2022-08-25T21:03:22.295Z,6.18
2022-08-25T21:05:53.581Z,5.95
2022-08-25T21:08:21.993Z,6.20
2022-08-25T21:10:51.654Z,6.30
2022-08-25T21:13:19.473Z,5.63
2022-08-25T21:15:48.627Z,5.70
2022-08-25T21:18:16.449Z,6.10
2022-08-25T21:20:44.235Z,7.85
2022-08-25T21:23:11.977Z,5.47
2022-08-25T21:25:41.030Z,5.85
2022-08-25T21:28:09.074Z,5.97
2022-08-25T21:30:36.805Z,5.63
2022-08-25T21:33:04.722Z,6.15
2022-08-25T21:35:32.571Z,5.53
2022-08-25T21:38:01.897Z,8.25
2022-08-25T21:40:30.769Z,6.82
2022-08-25T21:42:58.604Z,6.18
2022-08-25T21:45:26.438Z,5.93
2022-08-25T21:48:01.014Z,5.97
2022-08-25T21:50:28.853Z,7.95
2022-08-25T21:52:56.655Z,7.30
2022-08-25T21:55:24.432Z,5.88
2022-08-25T21:57:52.641Z,5.82
2022-08-25T22:00:21.338Z,6.03
2022-08-25T22:02:49.330Z,5.30
2022-08-25T22:05:17.096Z,5.88
2022-08-25T22:07:45.130Z,7.53
2022-08-25T22:10:16.753Z,5.57
2022-08-25T22:12:45.934Z,5.97
2022-08-25T22:15:15.578Z,5.70
2022-08-25T22:17:43.329Z,5.20
2022-08-25T22:20:11.129Z,5.60
2022-08-25T22:22:38.855Z,5.38
2022-08-25T22:25:06.670Z,5.82
2022-08-25T22:27:35.877Z,5.75
2022-08-25T22:30:06.261Z,5.53
2022-08-25T22:32:34.072Z,5.97
2022-08-25T22:35:01.773Z,6.47
2022-08-25T22:37:30.405Z,5.47
2022-08-25T22:39:58.282Z,5.63
2022-08-25T22:42:26.322Z,5.63
2022-08-25T22:44:55.053Z,5.88
2022-08-25T22:47:22.751Z,6.00
2022-08-25T22:49:52.352Z,6.78
2022-08-25T22:52:20.072Z,5.55
2022-08-25T22:54:59.719Z,6.32
2022-08-25T22:57:27.473Z,6.45
2022-08-25T22:59:56.567Z,8.40
2022-08-25T23:02:24.296Z,5.80
2022-08-25T23:04:52.264Z,6.40
2022-08-25T23:07:24.027Z,6.60
2022-08-25T23:09:53.059Z,7.90
2022-08-25T23:12:20.840Z,5.78
2022-08-25T23:14:51.545Z,6.53
2022-08-25T23:17:19.264Z,6.05
2022-08-25T23:19:47.517Z,6.53
2022-08-25T23:22:16.178Z,6.32
2022-08-25T23:24:44.241Z,6.80
2022-08-25T23:27:12.014Z,5.65
2022-08-25T23:29:39.748Z,7.50
2022-08-25T23:32:07.842Z,6.85
2022-08-25T23:34:36.354Z,6.60
2022-08-25T23:37:04.163Z,7.38
2022-08-25T23:39:31.885Z,7.28
2022-08-25T23:41:59.627Z,7.55
2022-08-25T23:44:27.615Z,7.22
2022-08-25T23:46:55.418Z,6.05
2022-08-25T23:49:25.877Z,5.80
2022-08-25T23:51:56.163Z,5.88
2022-08-25T23:54:31.571Z,6.20
2022-08-25T23:56:59.549Z,6.00
2022-08-25T23:59:27.442Z,6.15
